Time;durP1;ratioP1;P1;durP2;ratioP2;P2;SDS_P1;SDS_P2;PMS_P1;PMS_P2;Temp;Humidity;BMP_temperature;BMP_pressure;BME280_temperature;BME280_humidity;BME280_pressure;Samples;Min_cycle;Max_cycle;Signal;HPM_P1;HPM_P2
2022/12/23 00:00:42;;;;;;;9.20;2.45;;;13.00;99.90;;;;;;5031630;28;20028;-85
2022/12/23 00:03:08;;;;;;;8.35;2.30;;;13.10;99.90;;;;;;5031792;28;20109;-84
2022/12/23 00:05:38;;;;;;;7.55;2.15;;;13.10;99.90;;;;;;5032293;28;20104;-84
2022/12/23 00:08:05;;;;;;;8.98;2.88;;;13.10;99.90;;;;;;5030966;28;20033;-85
2022/12/23 00:10:30;;;;;;;5.25;2.30;;;13.10;99.90;;;;;;5031827;28;20049;-85
2022/12/23 00:15:40;;;;;;;8.40;2.42;;;13.20;99.90;;;;;;5031317;28;20079;-84
2022/12/23 00:18:06;;;;;;;6.22;2.22;;;13.20;99.90;;;;;;5031728;28;20513;-84
2022/12/23 00:20:33;;;;;;;6.38;2.38;;;13.20;99.90;;;;;;5031640;28;20033;-85
2022/12/23 00:23:04;;;;;;;8.40;2.20;;;13.30;99.90;;;;;;5031415;28;20029;-85
2022/12/23 00:25:39;;;;;;;7.55;2.05;;;13.30;99.90;;;;;;5030829;28;20040;-84
2022/12/23 00:28:19;;;;;;;8.55;1.92;;;13.40;99.90;;;;;;5031832;28;20402;-85
2022/12/23 00:30:45;;;;;;;4.43;2.10;;;13.40;99.90;;;;;;5015908;28;20036;-85
2022/12/23 00:33:12;;;;;;;8.77;2.20;;;13.40;99.90;;;;;;5031653;28;20048;-85
2022/12/23 00:35:38;;;;;;;5.70;2.35;;;13.40;99.90;;;;;;5031264;28;20055;-85
2022/12/23 00:38:03;;;;;;;4.85;1.73;;;13.30;99.90;;;;;;5030955;28;20057;-85
2022/12/23 00:43:13;;;;;;;7.05;1.95;;;13.40;99.90;;;;;;5031320;28;20032;-85
2022/12/23 00:45:39;;;;;;;3.78;1.70;;;13.40;99.90;;;;;;5031424;28;20108;-85
2022/12/23 00:50:51;;;;;;;6.88;1.90;;;13.50;99.90;;;;;;5020611;28;20037;-85
2022/12/23 00:53:17;;;;;;;4.90;2.08;;;13.50;99.90;;;;;;5032922;28;20049;-84
2022/12/23 00:55:46;;;;;;;3.55;1.42;;;13.60;99.90;;;;;;5035374;28;20084;-85
2022/12/23 00:58:19;;;;;;;4.40;1.50;;;13.50;99.90;;;;;;5035295;28;20047;-85
2022/12/23 01:06:15;;;;;;;4.72;1.92;;;13.10;99.90;;;;;;5035092;28;20105;-85
2022/12/23 01:08:41;;;;;;;4.35;1.95;;;13.10;99.90;;;;;;5035105;28;20025;-85
2022/12/23 01:11:09;;;;;;;5.10;1.75;;;13.50;99.90;;;;;;5035834;28;20040;-85
2022/12/23 01:13:36;;;;;;;7.35;2.03;;;13.50;99.90;;;;;;5035543;28;20052;-85
2022/12/23 01:16:04;;;;;;;6.22;1.88;;;13.60;99.90;;;;;;5034586;28;20030;-84
2022/12/23 01:18:29;;;;;;;5.55;1.98;;;13.50;99.90;;;;;;5035136;28;20076;-84
2022/12/23 01:20:55;;;;;;;8.07;2.35;;;13.60;99.90;;;;;;5034335;28;20422;-84
2022/12/23 01:23:21;;;;;;;7.38;2.38;;;13.60;99.90;;;;;;5034173;28;20064;-85
2022/12/23 01:25:55;;;;;;;6.47;2.00;;;13.60;99.90;;;;;;5017182;28;20477;-85
2022/12/23 01:28:21;;;;;;;5.75;1.77;;;13.60;99.90;;;;;;5020498;28;20489;-84
2022/12/23 01:30:47;;;;;;;4.55;1.70;;;13.60;99.90;;;;;;5035017;28;20091;-84
2022/12/23 01:33:12;;;;;;;5.60;2.20;;;13.50;99.90;;;;;;5034767;28;20026;-85
2022/12/23 01:35:38;;;;;;;6.40;2.03;;;13.50;99.90;;;;;;5033704;28;20029;-84
2022/12/23 01:38:03;;;;;;;6.07;2.00;;;13.40;99.90;;;;;;5016869;28;20041;-84
2022/12/23 01:40:34;;;;;;;8.40;1.95;;;13.30;99.90;;;;;;5034307;28;20512;-84
2022/12/23 01:43:00;;;;;;;4.32;1.60;;;13.30;99.90;;;;;;5034565;28;20017;-84
2022/12/23 01:45:31;;;;;;;5.65;1.70;;;13.30;99.90;;;;;;5033820;28;20079;-84
2022/12/23 01:48:25;;;;;;;7.68;2.00;;;13.40;99.90;;;;;;5017338;28;20030;-85
2022/12/23 01:51:00;;;;;;;6.60;1.77;;;13.30;99.90;;;;;;5019905;28;20544;-85
2022/12/23 01:53:29;;;;;;;4.80;1.83;;;13.30;99.90;;;;;;5034630;28;20045;-84
2022/12/23 01:56:25;;;;;;;4.30;2.00;;;13.30;99.90;;;;;;5034235;28;20088;-84
2022/12/23 01:59:01;;;;;;;7.55;2.38;;;13.30;99.90;;;;;;5018673;28;20045;-83
2022/12/23 02:04:17;;;;;;;2.75;1.83;;;13.20;99.90;;;;;;5034111;28;20028;-84
2022/12/23 02:09:31;;;;;;;4.72;1.48;;;13.10;99.90;;;;;;5034785;28;20076;-84
2022/12/23 02:12:16;;;;;;;4.05;1.73;;;13.10;99.90;;;;;;5033660;28;20485;-84
2022/12/23 02:18:08;;;;;;;4.25;1.85;;;13.00;99.90;;;;;;5032732;28;20060;-84
2022/12/23 02:21:11;;;;;;;7.22;1.98;;;13.00;99.90;;;;;;5033892;28;20029;-84
2022/12/23 02:24:11;;;;;;;3.83;1.80;;;13.00;99.90;;;;;;5035537;28;20021;-85
2022/12/23 02:26:55;;;;;;;5.22;1.98;;;13.00;99.90;;;;;;5033589;28;20060;-85
2022/12/23 02:29:30;;;;;;;9.25;2.03;;;13.00;99.90;;;;;;5033812;28;20101;-83
2022/12/23 02:32:02;;;;;;;3.40;1.75;;;13.10;99.90;;;;;;5033870;28;20040;-84
2022/12/23 02:34:53;;;;;;;5.55;2.25;;;12.80;99.90;;;;;;5016090;28;20029;-84
2022/12/23 02:37:34;;;;;;;4.93;1.88;;;12.60;99.90;;;;;;5033332;28;20037;-84
2022/12/23 02:40:17;;;;;;;6.68;2.28;;;12.60;99.90;;;;;;5033319;28;20049;-84
2022/12/23 02:42:58;;;;;;;4.60;2.08;;;12.60;99.90;;;;;;5033806;28;20108;-84
2022/12/23 02:45:38;;;;;;;8.15;2.47;;;12.80;99.90;;;;;;5033231;28;20108;-84
2022/12/23 02:48:10;;;;;;;5.47;2.05;;;12.90;99.90;;;;;;5032149;28;20501;-84
2022/12/23 02:50:38;;;;;;;4.78;2.13;;;12.80;99.90;;;;;;5033311;28;20082;-84
2022/12/23 02:53:10;;;;;;;6.82;2.10;;;12.90;99.90;;;;;;5032975;28;20031;-84
2022/12/23 02:55:39;;;;;;;5.80;2.00;;;12.90;99.90;;;;;;5033256;28;20033;-84
2022/12/23 02:58:09;;;;;;;6.80;2.00;;;13.00;99.90;;;;;;5033548;28;20030;-84
2022/12/23 03:00:39;;;;;;;6.18;2.28;;;13.00;99.90;;;;;;5033162;28;20513;-84
2022/12/23 03:03:05;;;;;;;7.25;2.47;;;13.00;99.90;;;;;;5033264;28;20147;-84
2022/12/23 03:05:43;;;;;;;5.68;1.77;;;13.00;99.90;;;;;;5033214;28;20104;-84
2022/12/23 03:08:21;;;;;;;6.05;1.88;;;13.00;99.90;;;;;;5032598;28;20018;-84
2022/12/23 03:11:14;;;;;;;4.43;1.70;;;13.00;99.90;;;;;;5033364;28;20111;-84
2022/12/23 03:14:20;;;;;;;5.18;1.67;;;13.00;99.90;;;;;;5032817;28;20021;-84
2022/12/23 03:17:12;;;;;;;4.47;1.85;;;13.00;99.90;;;;;;5021778;28;20378;-84
2022/12/23 03:20:00;;;;;;;4.65;1.40;;;12.90;99.90;;;;;;5032751;28;20033;-84
2022/12/23 03:22:36;;;;;;;6.70;1.95;;;13.00;99.90;;;;;;5032591;28;20032;-83
2022/12/23 03:25:30;;;;;;;7.82;1.92;;;13.00;99.90;;;;;;5014578;28;20464;-84
2022/12/23 03:28:11;;;;;;;7.70;1.83;;;13.00;99.90;;;;;;5032726;28;20508;-85
2022/12/23 03:30:41;;;;;;;4.78;1.55;;;13.00;99.90;;;;;;5032239;28;20037;-84
2022/12/23 03:33:21;;;;;;;6.43;1.75;;;13.00;99.90;;;;;;5032742;28;20029;-84
2022/12/23 03:35:53;;;;;;;4.40;1.70;;;13.00;99.90;;;;;;5032800;28;20382;-84
2022/12/23 03:38:21;;;;;;;5.13;1.83;;;13.00;99.90;;;;;;5032321;28;20049;-84
2022/12/23 03:40:54;;;;;;;2.83;1.63;;;13.00;99.90;;;;;;5032133;28;20033;-85
2022/12/23 03:43:27;;;;;;;6.28;1.70;;;13.00;99.90;;;;;;5032049;28;20052;-84
2022/12/23 03:46:00;;;;;;;4.72;1.50;;;13.10;99.90;;;;;;5031635;28;20030;-84
2022/12/23 03:48:45;;;;;;;3.22;1.40;;;13.10;99.90;;;;;;5032601;28;20034;-84
2022/12/23 03:51:17;;;;;;;3.45;1.55;;;13.20;99.90;;;;;;5032424;28;20093;-84
2022/12/23 03:53:56;;;;;;;4.78;1.75;;;13.20;99.90;;;;;;5031779;28;20056;-84
2022/12/23 03:56:33;;;;;;;3.40;1.33;;;13.20;99.90;;;;;;5031922;28;20018;-84
2022/12/23 03:59:06;;;;;;;4.03;1.50;;;13.20;99.90;;;;;;5032395;28;20044;-84
2022/12/23 04:02:02;;;;;;;3.60;1.58;;;13.30;99.90;;;;;;5031467;28;20037;-84
2022/12/23 04:05:02;;;;;;;4.05;1.50;;;13.20;99.90;;;;;;5030891;28;20099;-84
2022/12/23 04:08:06;;;;;;;5.38;1.60;;;13.20;99.90;;;;;;5026925;28;20038;-89
2022/12/23 04:10:32;;;;;;;3.63;1.13;;;13.20;99.90;;;;;;4932672;29;20091;-89
2022/12/23 04:12:58;;;;;;;4.95;1.42;;;13.20;99.90;;;;;;4933153;29;20019;-90
2022/12/23 04:15:26;;;;;;;2.47;1.25;;;13.30;99.90;;;;;;4933148;29;20034;-89
2022/12/23 04:17:53;;;;;;;4.22;1.23;;;13.30;99.90;;;;;;4932683;29;20499;-89
2022/12/23 04:20:20;;;;;;;1.80;1.15;;;13.30;99.90;;;;;;4916879;29;20044;-89
2022/12/23 04:22:45;;;;;;;3.80;1.48;;;13.30;99.90;;;;;;4928131;29;20024;-89
2022/12/23 04:25:12;;;;;;;4.20;1.15;;;13.40;99.90;;;;;;4913941;29;20046;-89
2022/12/23 04:27:38;;;;;;;3.70;1.35;;;13.50;99.90;;;;;;4914046;29;20171;-90
2022/12/23 04:30:06;;;;;;;2.92;1.20;;;13.50;99.90;;;;;;4913611;29;20580;-90
2022/12/23 04:32:32;;;;;;;2.22;1.35;;;13.50;99.90;;;;;;4913792;29;20122;-89
2022/12/23 04:34:58;;;;;;;2.97;1.20;;;13.50;99.90;;;;;;4929966;29;20571;-89
2022/12/23 04:37:23;;;;;;;3.17;1.10;;;13.50;99.90;;;;;;4932726;29;20036;-89
2022/12/23 04:39:49;;;;;;;3.50;1.60;;;13.50;99.90;;;;;;4913215;29;20056;-89
2022/12/23 04:42:15;;;;;;;3.03;1.13;;;13.40;99.90;;;;;;4931144;29;20073;-89
2022/12/23 04:44:40;;;;;;;2.97;1.20;;;13.40;99.90;;;;;;4931998;29;20615;-89
2022/12/23 04:47:06;;;;;;;3.35;1.00;;;13.40;99.90;;;;;;5023285;28;20033;-89
2022/12/23 04:49:32;;;;;;;2.65;1.20;;;13.40;99.90;;;;;;5014049;28;20026;-89
2022/12/23 04:51:57;;;;;;;3.22;1.20;;;13.40;99.90;;;;;;5031883;28;20516;-89
2022/12/23 04:54:23;;;;;;;2.17;1.15;;;13.50;99.90;;;;;;5031219;28;20107;-89
2022/12/23 04:56:48;;;;;;;2.72;1.17;;;13.40;99.90;;;;;;5032092;28;20029;-90
2022/12/23 04:59:14;;;;;;;3.22;0.98;;;13.50;99.90;;;;;;5031299;28;20041;-89
2022/12/23 05:01:41;;;;;;;5.07;1.10;;;13.60;99.90;;;;;;5031466;28;20428;-89
2022/12/23 05:04:07;;;;;;;2.80;1.13;;;13.70;99.90;;;;;;5031629;28;20066;-89
2022/12/23 05:06:33;;;;;;;3.08;1.20;;;13.60;99.90;;;;;;5024948;28;20025;-89
2022/12/23 05:08:59;;;;;;;3.67;1.60;;;13.50;99.90;;;;;;5031582;28;20026;-91
2022/12/23 05:11:25;;;;;;;2.58;1.27;;;13.50;99.90;;;;;;5031379;28;20080;-89
2022/12/23 05:13:51;;;;;;;2.83;1.13;;;13.50;99.90;;;;;;5013159;28;20083;-89
2022/12/23 05:16:16;;;;;;;1.90;1.10;;;13.50;99.90;;;;;;5031509;28;20034;-89
2022/12/23 05:18:42;;;;;;;2.58;1.15;;;13.60;99.90;;;;;;5030645;28;20063;-89
2022/12/23 05:21:08;;;;;;;1.92;1.17;;;13.70;99.90;;;;;;5031570;28;20064;-89
2022/12/23 05:23:33;;;;;;;3.55;1.40;;;13.60;99.90;;;;;;5031613;28;20485;-89
2022/12/23 05:25:59;;;;;;;2.08;1.10;;;13.70;99.90;;;;;;5031269;28;20030;-89
2022/12/23 05:28:25;;;;;;;2.95;1.30;;;13.70;99.90;;;;;;5031631;28;20124;-89
2022/12/23 05:30:58;;;;;;;3.92;1.45;;;13.70;99.90;;;;;;5030422;28;20037;-90
2022/12/23 05:33:24;;;;;;;2.97;1.20;;;13.60;99.90;;;;;;5031205;28;20461;-89
2022/12/23 05:35:49;;;;;;;4.53;1.02;;;13.70;99.90;;;;;;5031269;28;20060;-89
2022/12/23 05:38:15;;;;;;;4.07;1.35;;;13.60;99.90;;;;;;5032143;28;20090;-89
2022/12/23 05:40:40;;;;;;;4.30;1.70;;;13.60;99.90;;;;;;5034473;28;20084;-89
2022/12/23 05:43:06;;;;;;;4.10;1.58;;;13.70;99.90;;;;;;5035267;28;20046;-89
2022/12/23 05:45:35;;;;;;;3.33;1.10;;;13.60;99.90;;;;;;5035374;28;20034;-89
2022/12/23 05:48:01;;;;;;;3.58;1.35;;;13.50;99.90;;;;;;5030603;28;20030;-90
2022/12/23 05:50:26;;;;;;;1.85;1.13;;;13.60;99.90;;;;;;5034904;28;20119;-89
2022/12/23 05:52:54;;;;;;;2.83;1.20;;;13.60;99.90;;;;;;5035171;28;20103;-88
2022/12/23 05:55:20;;;;;;;3.72;1.50;;;13.60;99.90;;;;;;5034938;28;20026;-89
2022/12/23 05:57:46;;;;;;;4.75;1.30;;;13.70;99.90;;;;;;5035508;28;20394;-89
2022/12/23 06:00:13;;;;;;;4.00;1.23;;;13.60;99.90;;;;;;5035096;28;20044;-89
2022/12/23 06:02:39;;;;;;;3.00;1.40;;;13.70;99.90;;;;;;5036073;28;20033;-90
2022/12/23 06:05:06;;;;;;;2.60;1.40;;;13.60;99.90;;;;;;5035372;28;20064;-89
2022/12/23 06:07:31;;;;;;;2.97;1.42;;;13.60;99.90;;;;;;5034443;28;20029;-89
2022/12/23 06:09:57;;;;;;;2.22;1.40;;;13.70;99.90;;;;;;5034310;28;20029;-89
2022/12/23 06:12:23;;;;;;;2.58;1.50;;;13.60;99.90;;;;;;5035096;28;20124;-89
2022/12/23 06:14:48;;;;;;;5.28;1.40;;;13.60;99.90;;;;;;5034730;28;20451;-89
2022/12/23 06:17:14;;;;;;;3.70;1.70;;;13.60;99.90;;;;;;5035363;28;20501;-89
2022/12/23 06:19:41;;;;;;;5.15;1.50;;;13.60;99.90;;;;;;5034488;28;20076;-89
2022/12/23 06:22:06;;;;;;;3.28;1.70;;;13.70;99.90;;;;;;5033623;28;20029;-89
2022/12/23 06:24:32;;;;;;;2.60;1.30;;;13.70;99.90;;;;;;5015904;28;20025;-90
2022/12/23 06:26:57;;;;;;;5.03;1.50;;;13.70;99.90;;;;;;5033930;28;20508;-89
2022/12/23 06:29:23;;;;;;;2.20;1.38;;;13.80;99.90;;;;;;5034362;28;20416;-90
2022/12/23 06:31:49;;;;;;;3.90;1.75;;;13.70;99.90;;;;;;5033903;28;20108;-90
2022/12/23 06:34:15;;;;;;;2.80;1.60;;;13.70;99.90;;;;;;5033434;28;20040;-89
2022/12/23 06:36:40;;;;;;;3.42;1.50;;;13.70;99.90;;;;;;5033871;28;20091;-90
2022/12/23 06:39:06;;;;;;;2.15;1.45;;;13.60;99.90;;;;;;5015496;28;20041;-89
2022/12/23 06:41:32;;;;;;;3.10;1.63;;;13.60;99.90;;;;;;5032557;28;20385;-89
2022/12/23 06:43:57;;;;;;;3.67;1.70;;;13.70;99.90;;;;;;5033694;28;20053;-89
2022/12/23 06:46:23;;;;;;;4.60;2.13;;;13.70;99.90;;;;;;5012708;28;20033;-89
2022/12/23 06:48:49;;;;;;;3.35;1.80;;;13.60;99.90;;;;;;5014162;28;20030;-90
2022/12/23 06:51:14;;;;;;;2.92;1.70;;;13.50;99.90;;;;;;5014761;28;20026;-89
2022/12/23 06:53:40;;;;;;;5.25;1.65;;;13.60;99.90;;;;;;5029069;28;20059;-90
2022/12/23 06:56:06;;;;;;;2.88;1.75;;;13.60;99.90;;;;;;5028516;28;20486;-89
2022/12/23 06:58:31;;;;;;;3.22;1.90;;;13.60;99.90;;;;;;5050586;28;20033;-90
2022/12/23 07:00:57;;;;;;;3.95;2.00;;;13.70;99.90;;;;;;5034540;28;20029;-89
2022/12/23 07:03:22;;;;;;;2.72;1.60;;;13.70;99.90;;;;;;5033850;28;20482;-90
2022/12/23 07:05:49;;;;;;;2.58;1.70;;;13.70;99.90;;;;;;5015913;28;20025;-90
2022/12/23 07:08:19;;;;;;;4.50;2.45;;;13.80;99.90;;;;;;5032461;28;20024;-89
2022/12/23 07:10:44;;;;;;;4.13;2.25;;;13.70;99.90;;;;;;5015813;28;20029;-89
2022/12/23 07:13:10;;;;;;;3.70;2.00;;;13.80;99.90;;;;;;5033405;28;20552;-89
2022/12/23 07:15:37;;;;;;;5.78;2.13;;;13.80;99.90;;;;;;5033771;28;20056;-89
2022/12/23 07:18:03;;;;;;;4.57;3.25;;;13.80;99.90;;;;;;5033080;28;20045;-90
2022/12/23 07:20:28;;;;;;;5.85;3.28;;;13.80;99.90;;;;;;5032672;28;20046;-84
2022/12/23 07:22:55;;;;;;;4.55;2.10;;;13.80;99.90;;;;;;5032133;28;20037;-83
2022/12/23 07:25:22;;;;;;;4.80;2.70;;;13.90;99.90;;;;;;5034441;28;20053;-83
2022/12/23 07:27:54;;;;;;;3.50;1.92;;;13.90;99.90;;;;;;5028326;28;20437;-84
2022/12/23 07:30:22;;;;;;;5.82;2.20;;;14.10;99.90;;;;;;5032815;28;21390;-95
2022/12/23 07:32:49;;;;;;;4.20;2.00;;;14.20;99.90;;;;;;5031601;28;20061;-84
2022/12/23 07:35:14;;;;;;;5.10;2.42;;;14.30;99.90;;;;;;5033094;28;20048;-85
2022/12/23 07:37:40;;;;;;;5.40;2.40;;;14.30;99.90;;;;;;5032931;28;20481;-84
2022/12/23 07:40:07;;;;;;;3.38;1.92;;;14.30;99.90;;;;;;5033082;28;20512;-84
2022/12/23 07:42:33;;;;;;;6.97;2.28;;;14.30;99.90;;;;;;5032848;28;20391;-85
2022/12/23 07:44:59;;;;;;;3.08;1.95;;;14.50;99.90;;;;;;5032690;28;20033;-84
2022/12/23 07:47:24;;;;;;;5.40;2.42;;;14.50;99.90;;;;;;5033218;28;20022;-84
2022/12/23 07:49:50;;;;;;;4.40;2.00;;;14.40;99.90;;;;;;5032581;28;20044;-84
2022/12/23 07:52:15;;;;;;;3.15;1.95;;;14.50;99.90;;;;;;5014437;28;20037;-85
2022/12/23 07:54:41;;;;;;;4.05;1.65;;;14.60;99.90;;;;;;5032755;28;20386;-84
2022/12/23 07:57:07;;;;;;;4.53;2.13;;;14.50;99.90;;;;;;5032446;28;20033;-85
2022/12/23 07:59:32;;;;;;;4.90;2.70;;;14.50;99.90;;;;;;5032458;28;20401;-85
2022/12/23 08:01:58;;;;;;;3.95;2.38;;;14.60;99.90;;;;;;5032609;28;20493;-84
2022/12/23 08:04:24;;;;;;;4.20;2.30;;;14.60;99.90;;;;;;5032078;28;20025;-84
2022/12/23 08:06:49;;;;;;;3.83;2.10;;;14.60;99.90;;;;;;5031359;28;20074;-84
2022/12/23 08:09:15;;;;;;;8.23;2.45;;;14.50;99.90;;;;;;5032242;28;20120;-84
2022/12/23 08:11:41;;;;;;;3.72;2.00;;;14.50;99.90;;;;;;5032415;28;20108;-84
2022/12/23 08:14:06;;;;;;;5.55;2.28;;;14.50;99.90;;;;;;5032398;28;20025;-84
2022/12/23 08:16:32;;;;;;;4.40;2.20;;;14.60;99.90;;;;;;5032381;28;20105;-85
2022/12/23 08:18:58;;;;;;;4.38;2.30;;;14.60;99.90;;;;;;5032045;28;20421;-85
2022/12/23 08:21:23;;;;;;;3.55;1.85;;;14.60;99.90;;;;;;5031922;28;20025;-84
2022/12/23 08:23:50;;;;;;;4.68;2.03;;;14.70;99.90;;;;;;5014786;28;20029;-84
2022/12/23 08:26:20;;;;;;;2.13;1.55;;;14.90;99.90;;;;;;5032056;28;20100;-84
2022/12/23 08:28:46;;;;;;;2.42;1.67;;;14.80;99.90;;;;;;5032276;28;20076;-85
2022/12/23 08:31:15;;;;;;;3.42;1.85;;;14.90;99.90;;;;;;5032040;28;20033;-84
2022/12/23 08:33:44;;;;;;;3.20;1.77;;;14.90;99.90;;;;;;5031907;28;20017;-84
2022/12/23 08:36:14;;;;;;;2.95;1.60;;;14.80;99.90;;;;;;5031843;28;20359;-84
2022/12/23 08:38:40;;;;;;;2.55;1.80;;;14.90;99.90;;;;;;5031841;28;20038;-85
2022/12/23 08:41:15;;;;;;;4.25;1.77;;;15.00;99.90;;;;;;5031970;28;20087;-84
2022/12/23 08:43:41;;;;;;;3.95;1.77;;;15.00;99.90;;;;;;5032043;28;20021;-84
2022/12/23 08:46:07;;;;;;;3.03;1.55;;;15.00;99.90;;;;;;5014693;28;20024;-84
2022/12/23 08:48:33;;;;;;;3.80;1.80;;;15.10;99.90;;;;;;5031912;28;20063;-84
2022/12/23 08:51:11;;;;;;;2.42;1.60;;;15.10;99.90;;;;;;5031877;28;20033;-84
2022/12/23 08:53:38;;;;;;;3.45;1.80;;;15.10;99.90;;;;;;5031737;28;20021;-84
2022/12/23 08:56:07;;;;;;;2.15;1.70;;;15.30;99.90;;;;;;5031840;28;20077;-84
2022/12/23 08:58:40;;;;;;;2.80;1.67;;;15.30;99.90;;;;;;5031946;28;20040;-84
2022/12/23 09:01:08;;;;;;;4.82;1.50;;;15.30;99.90;;;;;;5031512;28;20092;-84
2022/12/23 09:03:36;;;;;;;3.00;1.60;;;15.30;99.90;;;;;;5031901;28;20028;-84
2022/12/23 09:06:10;;;;;;;2.13;1.50;;;15.30;99.90;;;;;;5031523;28;20033;-84
2022/12/23 09:08:36;;;;;;;2.45;1.55;;;15.40;99.90;;;;;;5032011;28;20040;-84
2022/12/23 09:11:02;;;;;;;3.78;1.83;;;15.30;99.90;;;;;;5031602;28;20381;-84
2022/12/23 09:13:27;;;;;;;2.90;2.00;;;15.40;99.90;;;;;;5033424;28;20516;-84
2022/12/23 09:15:53;;;;;;;2.35;1.67;;;15.30;99.90;;;;;;5035745;28;20110;-84
2022/12/23 09:18:19;;;;;;;2.63;1.38;;;15.40;99.90;;;;;;5034779;28;20046;-85
2022/12/23 09:20:44;;;;;;;2.17;1.50;;;15.40;99.90;;;;;;5035376;28;20017;-84
2022/12/23 09:23:10;;;;;;;1.85;1.65;;;15.40;99.90;;;;;;5035360;28;20383;-84
2022/12/23 09:25:36;;;;;;;1.80;1.58;;;15.30;99.90;;;;;;5035990;28;20026;-84
2022/12/23 09:28:03;;;;;;;2.97;1.67;;;15.20;99.90;;;;;;5035437;28;20034;-84
2022/12/23 09:30:29;;;;;;;2.13;1.33;;;15.20;99.90;;;;;;5035784;28;20477;-85
2022/12/23 09:32:55;;;;;;;1.98;1.20;;;15.10;99.90;;;;;;5034853;28;20059;-85
2022/12/23 09:35:20;;;;;;;2.40;1.60;;;15.20;99.90;;;;;;5035432;28;20060;-84
2022/12/23 09:37:46;;;;;;;2.15;1.30;;;15.10;99.90;;;;;;5035258;28;20029;-84
2022/12/23 09:40:14;;;;;;;2.47;1.65;;;15.10;99.90;;;;;;5035300;28;20108;-85
2022/12/23 09:42:46;;;;;;;3.80;1.70;;;15.00;99.90;;;;;;5035465;28;20021;-84
2022/12/23 09:45:35;;;;;;;1.85;1.15;;;15.00;99.90;;;;;;5035150;28;20068;-84
2022/12/23 09:48:02;;;;;;;2.55;1.77;;;15.20;99.90;;;;;;5034610;28;20028;-84
2022/12/23 09:50:30;;;;;;;2.17;1.55;;;15.10;99.90;;;;;;5034900;28;20544;-84
2022/12/23 09:53:02;;;;;;;3.08;1.67;;;15.20;99.90;;;;;;5034737;28;20022;-84
2022/12/23 09:55:44;;;;;;;2.10;1.38;;;15.20;99.90;;;;;;5034845;28;20075;-84
2022/12/23 09:58:28;;;;;;;2.88;1.85;;;15.10;99.90;;;;;;5034635;28;20371;-84
2022/12/23 10:01:32;;;;;;;3.67;1.60;;;15.10;99.90;;;;;;5035185;28;20033;-84
2022/12/23 10:04:19;;;;;;;2.10;1.70;;;15.10;99.90;;;;;;5029867;28;20390;-84
2022/12/23 10:06:55;;;;;;;3.17;1.88;;;15.20;99.90;;;;;;5035021;28;20027;-84
2022/12/23 10:09:20;;;;;;;3.08;1.13;;;15.20;99.90;;;;;;5034609;28;20044;-84
2022/12/23 10:11:52;;;;;;;4.05;2.28;;;15.20;99.90;;;;;;5034526;28;20030;-84
2022/12/23 10:14:30;;;;;;;3.40;1.58;;;15.30;99.90;;;;;;5034371;28;20034;-84
2022/12/23 10:17:07;;;;;;;2.33;1.67;;;15.40;99.90;;;;;;5034390;28;20068;-84
2022/12/23 10:19:41;;;;;;;3.22;2.00;;;15.40;99.90;;;;;;5034374;28;20486;-84
2022/12/23 10:22:37;;;;;;;3.17;1.60;;;15.40;99.90;;;;;;5034608;28;20367;-84
2022/12/23 10:25:12;;;;;;;2.28;1.80;;;15.40;99.90;;;;;;5025849;28;20061;-84
2022/12/23 10:27:40;;;;;;;4.32;1.70;;;15.30;99.90;;;;;;5034658;28;20362;-84
2022/12/23 10:30:09;;;;;;;2.97;1.65;;;15.30;99.90;;;;;;5034159;28;20021;-85
2022/12/23 10:32:58;;;;;;;3.20;1.98;;;15.40;99.90;;;;;;5034110;28;20030;-84
2022/12/23 10:35:41;;;;;;;5.07;1.83;;;15.40;99.90;;;;;;5014630;28;20058;-84
2022/12/23 10:38:25;;;;;;;3.17;1.98;;;15.40;99.90;;;;;;5014219;28;20164;-84
2022/12/23 10:41:02;;;;;;;2.70;1.50;;;15.30;99.90;;;;;;5014434;28;20176;-84
2022/12/23 10:43:56;;;;;;;1.70;1.27;;;15.40;99.90;;;;;;5014270;28;20045;-85
2022/12/23 10:46:21;;;;;;;2.70;1.70;;;15.40;99.90;;;;;;5013928;28;20038;-84
2022/12/23 10:48:55;;;;;;;4.03;2.25;;;15.40;99.90;;;;;;5013801;28;20022;-84
2022/12/23 10:51:24;;;;;;;2.75;1.95;;;15.40;99.90;;;;;;5014479;28;20101;-84
2022/12/23 10:53:54;;;;;;;2.67;1.67;;;15.40;99.90;;;;;;5028993;28;20037;-84
2022/12/23 10:56:21;;;;;;;3.22;1.80;;;15.50;99.90;;;;;;5033747;28;20053;-84
2022/12/23 10:58:51;;;;;;;2.38;1.30;;;15.40;99.90;;;;;;5033504;28;20569;-84
2022/12/23 11:01:18;;;;;;;3.42;1.55;;;15.40;99.90;;;;;;5033420;28;20017;-84
2022/12/23 11:03:54;;;;;;;5.57;2.20;;;15.50;99.90;;;;;;5033562;28;20030;-84
2022/12/23 11:06:21;;;;;;;2.67;1.67;;;15.40;99.90;;;;;;5033885;28;20025;-84
2022/12/23 11:08:47;;;;;;;4.43;2.10;;;15.50;99.90;;;;;;5033608;28;20032;-84
2022/12/23 11:11:12;;;;;;;4.40;1.95;;;15.40;99.90;;;;;;5033463;28;20025;-84
2022/12/23 11:13:41;;;;;;;3.90;2.20;;;15.40;99.90;;;;;;5033695;28;20035;-84
2022/12/23 11:16:26;;;;;;;5.43;1.83;;;15.40;99.90;;;;;;5033404;28;20115;-84
2022/12/23 11:18:58;;;;;;;3.75;2.28;;;15.30;99.90;;;;;;5033045;28;20143;-85
2022/12/23 11:21:24;;;;;;;4.35;2.20;;;15.40;99.90;;;;;;5033154;28;20033;-84
2022/12/23 11:24:06;;;;;;;3.45;2.20;;;15.40;99.90;;;;;;5033392;28;20037;-84
2022/12/23 11:26:32;;;;;;;6.38;2.05;;;15.40;99.90;;;;;;5033510;28;20022;-84
2022/12/23 11:29:05;;;;;;;3.97;2.45;;;15.40;99.90;;;;;;5032723;28;20030;-84
2022/12/23 11:31:34;;;;;;;2.80;1.77;;;15.40;99.90;;;;;;5033073;28;20021;-84
2022/12/23 11:34:22;;;;;;;3.38;2.20;;;15.40;99.90;;;;;;5032779;28;20456;-84
2022/12/23 11:36:57;;;;;;;3.92;2.30;;;15.40;99.90;;;;;;5032395;28;20528;-85
2022/12/23 11:39:32;;;;;;;4.28;2.63;;;15.40;99.90;;;;;;5032968;28;20033;-84
2022/12/23 11:42:23;;;;;;;4.82;2.50;;;15.40;99.90;;;;;;5033538;28;20017;-84
2022/12/23 11:44:51;;;;;;;4.55;2.40;;;15.40;99.90;;;;;;5032449;28;20033;-84
2022/12/23 11:47:39;;;;;;;2.75;2.30;;;15.40;99.90;;;;;;5014988;28;20032;-84
2022/12/23 11:50:33;;;;;;;3.47;2.20;;;15.40;99.90;;;;;;5032725;28;20020;-85
2022/12/23 11:53:23;;;;;;;4.72;2.55;;;15.40;99.90;;;;;;5032379;28;20040;-84
2022/12/23 11:56:28;;;;;;;4.72;2.20;;;15.40;99.90;;;;;;5032953;28;20025;-85
2022/12/23 11:59:02;;;;;;;4.15;2.47;;;15.40;99.90;;;;;;5030625;28;20129;-84
2022/12/23 12:01:28;;;;;;;6.15;2.38;;;15.40;99.90;;;;;;5032680;28;20029;-84
2022/12/23 12:03:58;;;;;;;3.83;2.67;;;15.40;99.90;;;;;;5032820;28;20029;-84
2022/12/23 12:06:25;;;;;;;5.03;2.75;;;15.30;99.90;;;;;;5032581;28;20018;-84
2022/12/23 12:08:55;;;;;;;3.78;2.20;;;15.30;99.90;;;;;;5032471;28;20029;-84
2022/12/23 12:11:38;;;;;;;5.93;2.78;;;15.40;99.90;;;;;;5032934;28;20108;-84
2022/12/23 12:14:06;;;;;;;4.93;2.22;;;15.40;99.90;;;;;;5032262;28;20481;-84
2022/12/23 12:16:50;;;;;;;6.18;2.38;;;15.40;99.90;;;;;;5032555;28;20044;-85
2022/12/23 12:19:26;;;;;;;5.22;2.33;;;15.40;99.90;;;;;;5032201;28;20541;-84
2022/12/23 12:21:57;;;;;;;6.40;2.78;;;15.40;99.90;;;;;;5032380;28;20096;-84
2022/12/23 12:24:31;;;;;;;3.95;2.95;;;15.40;99.90;;;;;;5032691;28;20044;-84
2022/12/23 12:27:03;;;;;;;4.47;2.72;;;15.40;99.90;;;;;;5031934;28;20025;-84
2022/12/23 12:29:36;;;;;;;5.07;3.33;;;15.30;99.90;;;;;;5032202;28;20040;-84
2022/12/23 12:32:05;;;;;;;4.13;2.90;;;15.10;99.90;;;;;;5032082;28;20022;-84
2022/12/23 12:34:52;;;;;;;3.10;2.13;;;15.30;99.90;;;;;;5031973;28;20371;-84
2022/12/23 12:37:30;;;;;;;2.63;2.28;;;15.50;99.90;;;;;;5032131;28;20031;-84
2022/12/23 12:40:25;;;;;;;4.97;2.58;;;15.50;99.90;;;;;;5032923;28;20081;-85
2022/12/23 12:43:09;;;;;;;5.18;2.88;;;15.50;99.90;;;;;;5024886;28;20121;-84
2022/12/23 12:46:03;;;;;;;5.53;2.35;;;15.60;99.90;;;;;;5032046;28;20029;-84
2022/12/23 12:48:50;;;;;;;5.70;2.55;;;15.60;99.90;;;;;;5035401;28;20034;-84
2022/12/23 12:51:36;;;;;;;4.47;2.67;;;15.60;99.90;;;;;;5036526;28;20117;-85
2022/12/23 12:54:16;;;;;;;4.30;2.80;;;15.60;99.90;;;;;;5018362;28;20355;-84
2022/12/23 12:56:55;;;;;;;4.82;2.45;;;15.60;99.90;;;;;;5035807;28;20440;-84
2022/12/23 12:59:28;;;;;;;4.72;2.90;;;15.60;99.90;;;;;;5035600;28;20493;-85
2022/12/23 13:02:18;;;;;;;4.82;2.45;;;15.50;99.90;;;;;;5036336;28;20256;-85
2022/12/23 13:05:19;;;;;;;4.85;2.70;;;15.50;99.90;;;;;;5036241;28;20068;-84
2022/12/23 13:08:15;;;;;;;5.75;2.65;;;15.40;99.90;;;;;;5036515;28;20108;-85
2022/12/23 13:11:04;;;;;;;5.15;2.70;;;15.40;99.90;;;;;;5035438;28;20037;-85
2022/12/23 13:14:03;;;;;;;3.67;2.58;;;15.40;99.90;;;;;;5035892;28;20385;-84
2022/12/23 13:16:54;;;;;;;4.28;2.60;;;15.50;99.90;;;;;;5035571;28;20398;-84
2022/12/23 13:19:44;;;;;;;4.75;2.38;;;15.60;99.90;;;;;;5035502;28;20374;-84
2022/12/23 13:22:17;;;;;;;4.63;2.28;;;15.70;99.90;;;;;;5035497;28;20033;-84
2022/12/23 13:25:01;;;;;;;4.90;2.78;;;15.70;99.90;;;;;;5035327;28;20024;-85
2022/12/23 13:27:37;;;;;;;6.18;2.40;;;15.80;99.90;;;;;;5035471;28;20547;-84
2022/12/23 13:30:18;;;;;;;3.38;2.10;;;15.80;99.90;;;;;;5035555;28;20053;-84
2022/12/23 13:32:52;;;;;;;5.45;2.50;;;15.80;99.90;;;;;;5035710;28;20022;-85
2022/12/23 13:35:36;;;;;;;3.75;2.42;;;15.80;99.90;;;;;;5035195;28;20108;-84